sensor_id;sensor_type;location;lat;lon;timestamp;pressure;altitude;pressure_sealevel;temperature;humidity
12360;BME280;6244;51.460;7.090;2023-03-22T00:00:01;100140.81;;;10.76;68.25
12360;BME280;6244;51.460;7.090;2023-03-22T00:05:01;100144.38;;;10.75;68.97
12360;BME280;6244;51.460;7.090;2023-03-22T00:09:57;100147.16;;;10.58;70.26
12360;BME280;6244;51.460;7.090;2023-03-22T00:14:54;100139.50;;;10.55;69.97
12360;BME280;6244;51.460;7.090;2023-03-22T00:19:50;100131.44;;;10.58;69.89
12360;BME280;6244;51.460;7.090;2023-03-22T00:24:49;100122.91;;;10.69;69.40
12360;BME280;6244;51.460;7.090;2023-03-22T00:29:46;100124.78;;;10.67;69.27
12360;BME280;6244;51.460;7.090;2023-03-22T00:34:43;100123.84;;;10.68;69.15
12360;BME280;6244;51.460;7.090;2023-03-22T00:39:39;100125.91;;;10.63;69.47
12360;BME280;6244;51.460;7.090;2023-03-22T00:44:37;100116.94;;;10.67;68.96
12360;BME280;6244;51.460;7.090;2023-03-22T00:49:34;100103.50;;;10.57;69.15
12360;BME280;6244;51.460;7.090;2023-03-22T00:54:31;100096.81;;;10.51;69.24
12360;BME280;6244;51.460;7.090;2023-03-22T00:59:28;100094.00;;;10.40;69.70
12360;BME280;6244;51.460;7.090;2023-03-22T01:04:26;100083.22;;;10.31;70.08
12360;BME280;6244;51.460;7.090;2023-03-22T01:09:22;100084.66;;;10.20;70.77
12360;BME280;6244;51.460;7.090;2023-03-22T01:14:19;100077.66;;;10.21;70.85
12360;BME280;6244;51.460;7.090;2023-03-22T01:19:16;100068.44;;;10.29;70.70
12360;BME280;6244;51.460;7.090;2023-03-22T01:24:13;100070.13;;;10.31;70.97
12360;BME280;6244;51.460;7.090;2023-03-22T01:29:11;100065.81;;;10.29;71.10
12360;BME280;6244;51.460;7.090;2023-03-22T01:34:08;100061.66;;;10.25;71.45
12360;BME280;6244;51.460;7.090;2023-03-22T01:39:04;100059.97;;;10.24;71.50
12360;BME280;6244;51.460;7.090;2023-03-22T01:44:10;100039.09;;;10.23;71.43
12360;BME280;6244;51.460;7.090;2023-03-22T01:49:10;100037.41;;;10.22;71.72
12360;BME280;6244;51.460;7.090;2023-03-22T01:54:11;100029.09;;;10.29;71.38
12360;BME280;6244;51.460;7.090;2023-03-22T01:59:12;100020.75;;;10.23;71.38
12360;BME280;6244;51.460;7.090;2023-03-22T02:04:11;100008.38;;;10.25;71.76
12360;BME280;6244;51.460;7.090;2023-03-22T02:09:12;100005.94;;;10.22;71.86
12360;BME280;6244;51.460;7.090;2023-03-22T02:14:19;100002.91;;;10.14;72.21
12360;BME280;6244;51.460;7.090;2023-03-22T02:25:19;99996.00;;;9.83;73.06
12360;BME280;6244;51.460;7.090;2023-03-22T02:30:53;99986.56;;;9.80;73.28
12360;BME280;6244;51.460;7.090;2023-03-22T02:36:11;99989.06;;;9.67;74.04
12360;BME280;6244;51.460;7.090;2023-03-22T02:41:20;99976.72;;;9.69;73.91
12360;BME280;6244;51.460;7.090;2023-03-22T02:46:22;99969.38;;;9.60;74.14
12360;BME280;6244;51.460;7.090;2023-03-22T02:51:21;99966.75;;;9.60;74.37
12360;BME280;6244;51.460;7.090;2023-03-22T02:56:23;99962.78;;;9.53;74.70
12360;BME280;6244;51.460;7.090;2023-03-22T03:01:24;99952.50;;;9.50;74.62
12360;BME280;6244;51.460;7.090;2023-03-22T03:06:23;99956.47;;;9.41;75.20
12360;BME280;6244;51.460;7.090;2023-03-22T03:11:24;99955.91;;;9.36;75.40
12360;BME280;6244;51.460;7.090;2023-03-22T03:16:22;99946.66;;;9.31;75.55
12360;BME280;6244;51.460;7.090;2023-03-22T03:21:29;99953.66;;;9.30;75.57
12360;BME280;6244;51.460;7.090;2023-03-22T03:26:35;99955.50;;;9.28;75.79
12360;BME280;6244;51.460;7.090;2023-03-22T03:31:38;99947.06;;;9.23;75.86
12360;BME280;6244;51.460;7.090;2023-03-22T03:36:41;99943.69;;;9.21;76.03
12360;BME280;6244;51.460;7.090;2023-03-22T03:41:41;99936.88;;;9.19;76.08
12360;BME280;6244;51.460;7.090;2023-03-22T03:46:39;99925.88;;;9.12;76.32
12360;BME280;6244;51.460;7.090;2023-03-22T03:51:45;99923.53;;;9.07;76.69
12360;BME280;6244;51.460;7.090;2023-03-22T03:56:44;99920.09;;;9.07;76.71
12360;BME280;6244;51.460;7.090;2023-03-22T04:01:42;99928.19;;;9.02;77.14
12360;BME280;6244;51.460;7.090;2023-03-22T04:06:44;99929.94;;;9.02;77.38
12360;BME280;6244;51.460;7.090;2023-03-22T04:11:40;99930.66;;;9.05;76.99
12360;BME280;6244;51.460;7.090;2023-03-22T04:16:38;99928.69;;;9.09;77.03
12360;BME280;6244;51.460;7.090;2023-03-22T04:21:35;99917.94;;;9.13;76.86
12360;BME280;6244;51.460;7.090;2023-03-22T04:26:32;99917.78;;;9.17;76.89
12360;BME280;6244;51.460;7.090;2023-03-22T04:31:28;99903.94;;;9.15;76.91
12360;BME280;6244;51.460;7.090;2023-03-22T04:36:26;99915.28;;;9.29;76.66
12360;BME280;6244;51.460;7.090;2023-03-22T04:41:25;99907.84;;;9.37;76.21
12360;BME280;6244;51.460;7.090;2023-03-22T04:46:22;99910.19;;;9.42;75.57
12360;BME280;6244;51.460;7.090;2023-03-22T04:51:19;99903.25;;;9.41;75.80
12360;BME280;6244;51.460;7.090;2023-03-22T04:56:17;99908.69;;;9.38;75.73
12360;BME280;6244;51.460;7.090;2023-03-22T05:01:15;99918.22;;;9.39;75.41
12360;BME280;6244;51.460;7.090;2023-03-22T05:06:14;99905.31;;;9.36;75.49
12360;BME280;6244;51.460;7.090;2023-03-22T05:11:12;99911.13;;;9.41;75.45
12360;BME280;6244;51.460;7.090;2023-03-22T05:16:10;99913.00;;;9.39;74.94
12360;BME280;6244;51.460;7.090;2023-03-22T05:21:10;99901.88;;;9.35;75.13
12360;BME280;6244;51.460;7.090;2023-03-22T05:26:08;99904.38;;;9.37;75.20
12360;BME280;6244;51.460;7.090;2023-03-22T05:31:05;99907.13;;;9.50;74.46
12360;BME280;6244;51.460;7.090;2023-03-22T05:36:04;99898.66;;;9.60;73.97
12360;BME280;6244;51.460;7.090;2023-03-22T05:41:05;99895.94;;;9.62;74.15
12360;BME280;6244;51.460;7.090;2023-03-22T05:52:41;99901.56;;;9.70;73.97
12360;BME280;6244;51.460;7.090;2023-03-22T05:57:39;99901.84;;;9.80;73.64
12360;BME280;6244;51.460;7.090;2023-03-22T06:02:36;99898.03;;;9.85;73.24
12360;BME280;6244;51.460;7.090;2023-03-22T06:07:32;99900.56;;;9.87;72.95
12360;BME280;6244;51.460;7.090;2023-03-22T06:12:31;99892.06;;;9.97;72.55
12360;BME280;6244;51.460;7.090;2023-03-22T06:17:27;99899.38;;;10.07;72.39
12360;BME280;6244;51.460;7.090;2023-03-22T06:22:24;99893.94;;;10.10;72.21
12360;BME280;6244;51.460;7.090;2023-03-22T06:27:20;99910.19;;;10.15;72.08
12360;BME280;6244;51.460;7.090;2023-03-22T06:32:18;99897.69;;;10.20;71.95
12360;BME280;6244;51.460;7.090;2023-03-22T06:37:17;99905.38;;;10.23;71.80
12360;BME280;6244;51.460;7.090;2023-03-22T06:42:14;99896.38;;;10.27;71.57
12360;BME280;6244;51.460;7.090;2023-03-22T06:47:10;99895.91;;;10.35;71.41
12360;BME280;6244;51.460;7.090;2023-03-22T06:52:08;99888.97;;;10.34;71.25
12360;BME280;6244;51.460;7.090;2023-03-22T06:57:05;99887.75;;;10.39;70.88
12360;BME280;6244;51.460;7.090;2023-03-22T07:02:02;99892.81;;;10.42;70.92
12360;BME280;6244;51.460;7.090;2023-03-22T07:06:59;99883.06;;;10.44;70.48
12360;BME280;6244;51.460;7.090;2023-03-22T07:11:56;99877.09;;;10.42;70.71
12360;BME280;6244;51.460;7.090;2023-03-22T07:16:53;99872.28;;;10.49;70.28
12360;BME280;6244;51.460;7.090;2023-03-22T07:21:49;99861.88;;;10.47;69.58
12360;BME280;6244;51.460;7.090;2023-03-22T07:26:46;99863.25;;;10.53;69.36
12360;BME280;6244;51.460;7.090;2023-03-22T07:31:44;99863.53;;;10.63;68.78
12360;BME280;6244;51.460;7.090;2023-03-22T07:36:40;99868.19;;;10.72;68.59
12360;BME280;6244;51.460;7.090;2023-03-22T07:41:37;99862.16;;;10.84;68.10
12360;BME280;6244;51.460;7.090;2023-03-22T07:46:33;99854.78;;;11.16;67.11
12360;BME280;6244;51.460;7.090;2023-03-22T07:51:31;99857.88;;;11.35;66.10
12360;BME280;6244;51.460;7.090;2023-03-22T07:56:28;99853.94;;;11.55;65.17
12360;BME280;6244;51.460;7.090;2023-03-22T08:01:24;99867.56;;;11.47;64.74
12360;BME280;6244;51.460;7.090;2023-03-22T08:06:21;99867.19;;;11.14;65.75
12360;BME280;6244;51.460;7.090;2023-03-22T08:11:19;99858.78;;;11.09;66.34
12360;BME280;6244;51.460;7.090;2023-03-22T08:16:15;99869.78;;;11.01;66.46
12360;BME280;6244;51.460;7.090;2023-03-22T08:21:12;99875.91;;;11.14;65.76
12360;BME280;6244;51.460;7.090;2023-03-22T08:26:09;99887.91;;;11.18;65.30
12360;BME280;6244;51.460;7.090;2023-03-22T08:31:12;99865.09;;;11.19;65.14
12360;BME280;6244;51.460;7.090;2023-03-22T08:36:11;99871.25;;;11.45;64.66
12360;BME280;6244;51.460;7.090;2023-03-22T08:41:08;99913.28;;;11.45;63.46
12360;BME280;6244;51.460;7.090;2023-03-22T08:46:05;99885.81;;;11.36;62.74
12360;BME280;6244;51.460;7.090;2023-03-22T08:51:03;99875.84;;;11.29;63.11
12360;BME280;6244;51.460;7.090;2023-03-22T08:56:00;99876.13;;;11.24;61.85
12360;BME280;6244;51.460;7.090;2023-03-22T09:00:57;99873.41;;;11.26;60.71
12360;BME280;6244;51.460;7.090;2023-03-22T09:05:54;99865.88;;;11.34;61.17
12360;BME280;6244;51.460;7.090;2023-03-22T09:10:52;99866.59;;;11.36;60.54
12360;BME280;6244;51.460;7.090;2023-03-22T09:15:49;99886.19;;;11.70;59.59
12360;BME280;6244;51.460;7.090;2023-03-22T09:20:46;99866.66;;;11.87;58.51
12360;BME280;6244;51.460;7.090;2023-03-22T09:25:43;99898.47;;;13.19;54.14
12360;BME280;6244;51.460;7.090;2023-03-22T09:30:41;99862.94;;;13.36;52.60
12360;BME280;6244;51.460;7.090;2023-03-22T09:35:40;99858.53;;;13.47;53.08
12360;BME280;6244;51.460;7.090;2023-03-22T09:40:42;99870.59;;;13.39;52.28
12360;BME280;6244;51.460;7.090;2023-03-22T09:45:45;99841.38;;;12.59;54.36
12360;BME280;6244;51.460;7.090;2023-03-22T09:50:44;99841.97;;;12.39;54.50
12360;BME280;6244;51.460;7.090;2023-03-22T09:55:45;99869.91;;;12.52;54.57
12360;BME280;6244;51.460;7.090;2023-03-22T10:00:48;99850.13;;;12.23;53.86
12360;BME280;6244;51.460;7.090;2023-03-22T10:05:51;99859.19;;;12.06;54.84
12360;BME280;6244;51.460;7.090;2023-03-22T10:10:52;99846.28;;;12.03;55.46
12360;BME280;6244;51.460;7.090;2023-03-22T10:15:52;99862.25;;;12.00;55.64
12360;BME280;6244;51.460;7.090;2023-03-22T10:20:55;99842.84;;;12.26;55.28
12360;BME280;6244;51.460;7.090;2023-03-22T10:25:55;99847.78;;;12.31;54.93
12360;BME280;6244;51.460;7.090;2023-03-22T10:30:55;99851.56;;;12.27;55.04
12360;BME280;6244;51.460;7.090;2023-03-22T10:35:53;99842.69;;;12.53;54.51
12360;BME280;6244;51.460;7.090;2023-03-22T10:40:53;99835.63;;;12.54;53.91
12360;BME280;6244;51.460;7.090;2023-03-22T10:45:52;99840.97;;;12.65;53.60
12360;BME280;6244;51.460;7.090;2023-03-22T10:50:52;99837.47;;;12.41;54.39
12360;BME280;6244;51.460;7.090;2023-03-22T10:55:49;99842.19;;;12.72;54.60
12360;BME280;6244;51.460;7.090;2023-03-22T11:00:48;99832.09;;;12.66;54.11
12360;BME280;6244;51.460;7.090;2023-03-22T11:05:58;99836.06;;;12.48;54.13
12360;BME280;6244;51.460;7.090;2023-03-22T11:10:55;99866.75;;;12.60;53.60
12360;BME280;6244;51.460;7.090;2023-03-22T11:15:57;99833.94;;;12.53;54.24
12360;BME280;6244;51.460;7.090;2023-03-22T11:20:59;99823.06;;;12.57;54.12
12360;BME280;6244;51.460;7.090;2023-03-22T11:26:05;99838.53;;;12.62;54.12
12360;BME280;6244;51.460;7.090;2023-03-22T11:31:05;99838.97;;;12.56;54.48
12360;BME280;6244;51.460;7.090;2023-03-22T11:36:14;99831.56;;;12.37;54.78
12360;BME280;6244;51.460;7.090;2023-03-22T11:41:20;99826.53;;;12.34;55.39
12360;BME280;6244;51.460;7.090;2023-03-22T11:46:17;99832.00;;;12.31;55.01
12360;BME280;6244;51.460;7.090;2023-03-22T11:51:17;99854.03;;;12.17;55.38
12360;BME280;6244;51.460;7.090;2023-03-22T11:56:27;99842.47;;;12.07;55.19
12360;BME280;6244;51.460;7.090;2023-03-22T12:01:31;99835.09;;;12.12;54.76
12360;BME280;6244;51.460;7.090;2023-03-22T12:06:33;99806.50;;;12.08;55.81
12360;BME280;6244;51.460;7.090;2023-03-22T12:11:35;99816.09;;;11.96;55.38
12360;BME280;6244;51.460;7.090;2023-03-22T12:16:39;99803.28;;;11.91;56.16
12360;BME280;6244;51.460;7.090;2023-03-22T12:21:41;99848.16;;;11.88;55.92
12360;BME280;6244;51.460;7.090;2023-03-22T12:26:38;99820.28;;;11.98;55.45
12360;BME280;6244;51.460;7.090;2023-03-22T12:31:38;99801.66;;;12.01;55.00
12360;BME280;6244;51.460;7.090;2023-03-22T12:36:39;99803.53;;;12.12;54.51
12360;BME280;6244;51.460;7.090;2023-03-22T12:41:40;99798.56;;;12.20;54.33
12360;BME280;6244;51.460;7.090;2023-03-22T12:46:44;99818.78;;;12.20;54.03
12360;BME280;6244;51.460;7.090;2023-03-22T12:51:45;99820.25;;;12.11;53.48
12360;BME280;6244;51.460;7.090;2023-03-22T12:56:45;99845.97;;;11.95;54.96
12360;BME280;6244;51.460;7.090;2023-03-22T13:01:46;99832.25;;;11.77;56.71
12360;BME280;6244;51.460;7.090;2023-03-22T13:06:56;99823.03;;;11.59;58.48
12360;BME280;6244;51.460;7.090;2023-03-22T13:17:39;99823.41;;;11.65;58.88
12360;BME280;6244;51.460;7.090;2023-03-22T13:22:57;99829.94;;;11.72;58.26
12360;BME280;6244;51.460;7.090;2023-03-22T13:27:56;99804.75;;;11.83;57.46
12360;BME280;6244;51.460;7.090;2023-03-22T13:32:57;99817.91;;;11.83;57.12
12360;BME280;6244;51.460;7.090;2023-03-22T13:38:01;99801.56;;;11.90;57.29
12360;BME280;6244;51.460;7.090;2023-03-22T13:43:10;99796.72;;;11.97;57.17
12360;BME280;6244;51.460;7.090;2023-03-22T13:48:11;99802.41;;;12.03;57.15
12360;BME280;6244;51.460;7.090;2023-03-22T13:53:14;99796.50;;;12.00;57.20
12360;BME280;6244;51.460;7.090;2023-03-22T13:58:31;99800.59;;;12.17;57.44
12360;BME280;6244;51.460;7.090;2023-03-22T14:03:33;99791.03;;;12.16;56.95
12360;BME280;6244;51.460;7.090;2023-03-22T14:08:31;99781.47;;;11.89;58.56
12360;BME280;6244;51.460;7.090;2023-03-22T14:13:32;99778.84;;;11.89;58.60
12360;BME280;6244;51.460;7.090;2023-03-22T14:18:32;99757.41;;;11.95;58.11
12360;BME280;6244;51.460;7.090;2023-03-22T14:23:33;99762.66;;;11.95;58.24
12360;BME280;6244;51.460;7.090;2023-03-22T14:28:33;99761.69;;;12.09;58.33
12360;BME280;6244;51.460;7.090;2023-03-22T14:33:33;99760.66;;;11.99;58.99
12360;BME280;6244;51.460;7.090;2023-03-22T14:38:33;99764.47;;;11.95;59.10
12360;BME280;6244;51.460;7.090;2023-03-22T14:43:32;99762.88;;;11.92;59.48
12360;BME280;6244;51.460;7.090;2023-03-22T14:48:32;99760.56;;;11.88;60.07
12360;BME280;6244;51.460;7.090;2023-03-22T14:53:32;99764.88;;;11.89;60.21
12360;BME280;6244;51.460;7.090;2023-03-22T14:58:32;99757.63;;;11.92;60.38
12360;BME280;6244;51.460;7.090;2023-03-22T15:03:32;99754.66;;;11.97;60.21
12360;BME280;6244;51.460;7.090;2023-03-22T15:08:31;99750.97;;;11.99;60.45
12360;BME280;6244;51.460;7.090;2023-03-22T15:13:28;99756.56;;;11.95;60.83
12360;BME280;6244;51.460;7.090;2023-03-22T15:18:28;99749.94;;;11.89;61.14
12360;BME280;6244;51.460;7.090;2023-03-22T15:23:33;99755.84;;;11.93;61.40
12360;BME280;6244;51.460;7.090;2023-03-22T15:28:31;99751.31;;;11.95;61.80
12360;BME280;6244;51.460;7.090;2023-03-22T15:33:32;99738.56;;;12.01;61.56
12360;BME280;6244;51.460;7.090;2023-03-22T15:38:33;99735.38;;;12.09;61.06
12360;BME280;6244;51.460;7.090;2023-03-22T15:43:33;99730.84;;;12.11;61.20
12360;BME280;6244;51.460;7.090;2023-03-22T15:48:40;99725.28;;;12.16;60.49
12360;BME280;6244;51.460;7.090;2023-03-22T15:53:38;99724.22;;;12.18;60.61
12360;BME280;6244;51.460;7.090;2023-03-22T15:58:35;99724.47;;;12.26;60.26
12360;BME280;6244;51.460;7.090;2023-03-22T16:03:38;99711.06;;;12.18;60.60
12360;BME280;6244;51.460;7.090;2023-03-22T16:08:37;99724.38;;;12.28;60.15
12360;BME280;6244;51.460;7.090;2023-03-22T16:13:34;99726.91;;;12.29;60.28
12360;BME280;6244;51.460;7.090;2023-03-22T16:18:31;99732.88;;;12.31;60.22
12360;BME280;6244;51.460;7.090;2023-03-22T16:23:28;99732.31;;;12.39;59.98
12360;BME280;6244;51.460;7.090;2023-03-22T16:28:26;99720.22;;;12.37;60.28
12360;BME280;6244;51.460;7.090;2023-03-22T16:33:22;99724.22;;;12.42;60.30
12360;BME280;6244;51.460;7.090;2023-03-22T16:38:19;99729.69;;;12.39;60.35
12360;BME280;6244;51.460;7.090;2023-03-22T16:43:17;99730.75;;;12.37;60.39
12360;BME280;6244;51.460;7.090;2023-03-22T16:48:15;99731.69;;;12.35;60.53
12360;BME280;6244;51.460;7.090;2023-03-22T16:53:13;99724.75;;;12.34;60.55
12360;BME280;6244;51.460;7.090;2023-03-22T16:58:11;99715.31;;;12.32;60.58
12360;BME280;6244;51.460;7.090;2023-03-22T17:03:10;99709.59;;;12.38;60.49
12360;BME280;6244;51.460;7.090;2023-03-22T17:08:15;99714.59;;;12.30;60.38
12360;BME280;6244;51.460;7.090;2023-03-22T17:13:13;99709.44;;;12.28;60.30
12360;BME280;6244;51.460;7.090;2023-03-22T17:18:11;99717.41;;;12.27;60.34
12360;BME280;6244;51.460;7.090;2023-03-22T17:23:09;99708.69;;;12.26;60.35
12360;BME280;6244;51.460;7.090;2023-03-22T17:28:10;99702.59;;;12.26;60.36
12360;BME280;6244;51.460;7.090;2023-03-22T17:33:07;99704.72;;;12.21;60.66
12360;BME280;6244;51.460;7.090;2023-03-22T17:38:04;99700.78;;;12.26;60.53
12360;BME280;6244;51.460;7.090;2023-03-22T17:43:01;99716.50;;;12.28;60.47
12360;BME280;6244;51.460;7.090;2023-03-22T17:47:59;99715.53;;;12.29;60.79
12360;BME280;6244;51.460;7.090;2023-03-22T17:52:58;99714.53;;;12.43;60.65
12360;BME280;6244;51.460;7.090;2023-03-22T17:57:55;99713.28;;;12.35;60.84
12360;BME280;6244;51.460;7.090;2023-03-22T18:02:53;99725.13;;;12.30;61.66
12360;BME280;6244;51.460;7.090;2023-03-22T18:07:51;99712.72;;;12.19;62.94
12360;BME280;6244;51.460;7.090;2023-03-22T18:12:48;99718.09;;;12.18;63.23
12360;BME280;6244;51.460;7.090;2023-03-22T18:17:47;99712.97;;;12.16;63.30
12360;BME280;6244;51.460;7.090;2023-03-22T18:22:44;99710.66;;;12.12;63.39
12360;BME280;6244;51.460;7.090;2023-03-22T18:27:42;99728.81;;;12.15;63.03
12360;BME280;6244;51.460;7.090;2023-03-22T18:32:40;99705.69;;;12.20;62.83
12360;BME280;6244;51.460;7.090;2023-03-22T18:37:37;99710.00;;;12.21;62.42
12360;BME280;6244;51.460;7.090;2023-03-22T18:42:36;99711.22;;;12.28;62.41
12360;BME280;6244;51.460;7.090;2023-03-22T18:47:35;99699.00;;;12.27;62.68
12360;BME280;6244;51.460;7.090;2023-03-22T18:52:32;99682.31;;;12.28;62.58
12360;BME280;6244;51.460;7.090;2023-03-22T18:57:29;99677.13;;;12.26;62.48
12360;BME280;6244;51.460;7.090;2023-03-22T19:02:26;99677.34;;;12.23;62.59
12360;BME280;6244;51.460;7.090;2023-03-22T19:07:24;99669.16;;;12.28;62.88
12360;BME280;6244;51.460;7.090;2023-03-22T19:12:20;99682.63;;;12.23;63.04
12360;BME280;6244;51.460;7.090;2023-03-22T19:17:17;99681.34;;;12.29;62.99
12360;BME280;6244;51.460;7.090;2023-03-22T19:22:13;99672.09;;;12.23;63.32
12360;BME280;6244;51.460;7.090;2023-03-22T19:27:12;99667.44;;;12.27;63.03
12360;BME280;6244;51.460;7.090;2023-03-22T19:32:08;99652.84;;;12.23;63.46
12360;BME280;6244;51.460;7.090;2023-03-22T19:37:05;99667.31;;;12.17;64.56
12360;BME280;6244;51.460;7.090;2023-03-22T19:42:02;99665.38;;;11.95;66.67
12360;BME280;6244;51.460;7.090;2023-03-22T19:47:01;99659.22;;;11.84;67.40
12360;BME280;6244;51.460;7.090;2023-03-22T19:51:57;99653.84;;;11.85;67.35
12360;BME280;6244;51.460;7.090;2023-03-22T19:56:55;99653.63;;;11.88;67.75
12360;BME280;6244;51.460;7.090;2023-03-22T20:01:52;99635.09;;;11.66;69.62
12360;BME280;6244;51.460;7.090;2023-03-22T20:06:50;99628.72;;;11.44;70.73
12360;BME280;6244;51.460;7.090;2023-03-22T20:11:47;99633.16;;;11.44;70.73
12360;BME280;6244;51.460;7.090;2023-03-22T20:16:43;99622.41;;;11.47;70.18
12360;BME280;6244;51.460;7.090;2023-03-22T20:21:40;99621.88;;;11.55;69.84
12360;BME280;6244;51.460;7.090;2023-03-22T20:26:37;99610.31;;;11.57;69.60
12360;BME280;6244;51.460;7.090;2023-03-22T20:31:34;99617.00;;;11.61;69.08
12360;BME280;6244;51.460;7.090;2023-03-22T20:36:31;99610.38;;;11.68;68.86
12360;BME280;6244;51.460;7.090;2023-03-22T20:41:28;99622.34;;;11.72;68.40
12360;BME280;6244;51.460;7.090;2023-03-22T20:46:26;99603.81;;;11.74;68.45
12360;BME280;6244;51.460;7.090;2023-03-22T20:51:23;99610.75;;;11.75;68.10
12360;BME280;6244;51.460;7.090;2023-03-22T20:56:20;99603.09;;;11.72;68.50
12360;BME280;6244;51.460;7.090;2023-03-22T21:01:16;99604.78;;;11.73;69.12
12360;BME280;6244;51.460;7.090;2023-03-22T21:06:16;99599.03;;;11.68;69.87
12360;BME280;6244;51.460;7.090;2023-03-22T21:11:13;99593.81;;;11.55;70.77
12360;BME280;6244;51.460;7.090;2023-03-22T21:16:11;99598.81;;;11.34;73.50
12360;BME280;6244;51.460;7.090;2023-03-22T21:21:11;99602.19;;;11.24;74.29
12360;BME280;6244;51.460;7.090;2023-03-22T21:26:09;99593.91;;;11.17;74.66
12360;BME280;6244;51.460;7.090;2023-03-22T21:31:08;99587.06;;;11.14;74.96
12360;BME280;6244;51.460;7.090;2023-03-22T21:36:06;99590.16;;;11.08;75.53
12360;BME280;6244;51.460;7.090;2023-03-22T21:41:04;99586.25;;;11.14;75.63
12360;BME280;6244;51.460;7.090;2023-03-22T21:46:07;99583.63;;;11.01;76.24
12360;BME280;6244;51.460;7.090;2023-03-22T21:51:05;99585.13;;;10.93;77.14
12360;BME280;6244;51.460;7.090;2023-03-22T21:56:04;99567.28;;;10.85;77.51
12360;BME280;6244;51.460;7.090;2023-03-22T22:01:01;99565.63;;;10.71;79.29
12360;BME280;6244;51.460;7.090;2023-03-22T22:06:00;99572.31;;;10.63;79.82
12360;BME280;6244;51.460;7.090;2023-03-22T22:10:58;99565.19;;;10.52;81.07
12360;BME280;6244;51.460;7.090;2023-03-22T22:15:56;99572.66;;;10.45;81.39
12360;BME280;6244;51.460;7.090;2023-03-22T22:20:54;99565.91;;;10.41;82.35
12360;BME280;6244;51.460;7.090;2023-03-22T22:25:57;99561.09;;;10.35;82.36
12360;BME280;6244;51.460;7.090;2023-03-22T22:30:54;99570.00;;;10.33;82.94
12360;BME280;6244;51.460;7.090;2023-03-22T22:35:50;99570.00;;;10.33;83.11
12360;BME280;6244;51.460;7.090;2023-03-22T22:40:47;99569.78;;;10.23;83.91
12360;BME280;6244;51.460;7.090;2023-03-22T22:45:45;99559.03;;;10.13;85.04
12360;BME280;6244;51.460;7.090;2023-03-22T22:50:42;99551.16;;;10.00;86.09
12360;BME280;6244;51.460;7.090;2023-03-22T22:55:38;99561.59;;;9.88;86.82
12360;BME280;6244;51.460;7.090;2023-03-22T23:00:35;99569.66;;;9.85;87.61
12360;BME280;6244;51.460;7.090;2023-03-22T23:05:33;99573.34;;;9.82;88.09
12360;BME280;6244;51.460;7.090;2023-03-22T23:10:30;99566.59;;;9.78;88.71
12360;BME280;6244;51.460;7.090;2023-03-22T23:15:30;99549.31;;;9.76;89.30
12360;BME280;6244;51.460;7.090;2023-03-22T23:20:27;99556.72;;;9.69;89.88
12360;BME280;6244;51.460;7.090;2023-03-22T23:25:25;99547.50;;;9.76;88.99
12360;BME280;6244;51.460;7.090;2023-03-22T23:30:21;99545.63;;;9.78;89.39
12360;BME280;6244;51.460;7.090;2023-03-22T23:35:18;99521.31;;;9.76;89.49
12360;BME280;6244;51.460;7.090;2023-03-22T23:40:15;99522.06;;;9.78;89.49
12360;BME280;6244;51.460;7.090;2023-03-22T23:45:13;99527.28;;;9.78;89.86
12360;BME280;6244;51.460;7.090;2023-03-22T23:50:11;99510.47;;;9.82;89.58
12360;BME280;6244;51.460;7.090;2023-03-22T23:55:08;99509.28;;;9.86;89.15
